Airfield :
LOGIN :

Register | Disclaimer

   EN    FR    IT 

 










Legend :    VFR   Marginal VFR   IFR   Intensive IFR   Very Intensive IFR
Visi :
Ceiling :
>= 8 km
>= 3000ft
5 to 8 km
1000 to 3000 ft
1500m to 5 km
500 to 1000 ft
800 to 1500m
200 to 500 ft
< 800m
< 200 ft
Symbols :   Thunderstorms  Fog  Heavy snow  Heavy precipitations  Wind > 20 kt
SIGMETs :     Misc.  Thunderstorms  Icing  Turbulence  Mountain Waves  Volcanic Ashes






- Airport Elevation : 646 ft
- IATA code : VNO


EYVI - Vilnius int.

CURRENT METAR :
  • 051850Z 18007KT CAVOK 20/16 Q1008 NOSIG

EXPIRED METARs :
  • 051820Z 18006KT CAVOK 21/16 Q1008 NOSIG
  • 051750Z 18005KT CAVOK 21/17 Q1009 NOSIG
  • 051720Z 17005KT 9999 BKN049 21/17 Q1009 NOSIG
  • 051650Z 18004KT CAVOK 21/16 Q1009 NOSIG
  • 051620Z 20005KT CAVOK 22/16 Q1009 NOSIG

TAF TAF EYVI
Valid from the 05 at 18:00 until the 06 at 18:00 UTC


051700Z 0518/0618 VRB05KT 9000 BKN030
TEMPO 0601/0606 BKN008
TEMPO 0609/0614 SHRA BKN020CB
TEMPO 0614/0618 BKN020CB



MET'MAP, your aeronautical weather chart ! - Copyright ORBIFLY December 2007 - Disclaimer

ORBIFLY MET'MAP TEAM :

Programming & Development : Alexandra Zaïnal
Concept & original design : Baudouin d'Aumeries
Assistance for programming : Marc-Olivier Méhu
Technical & hardware support : Manuel Goepfert

Contact : metmap@orbifly.com




SOURCES & CREDITS :

   NOAA